sensor_id;sensor_type;location;lat;lon;timestamp;pressure;altitude;pressure_sealevel;temperature;humidity
6514;BME280;3290;47.716;9.070;2023-12-20T00:01:35;97206.81;;;7.13;94.26
6514;BME280;3290;47.716;9.070;2023-12-20T00:04:00;97199.44;;;7.17;93.96
6514;BME280;3290;47.716;9.070;2023-12-20T00:06:26;97191.78;;;7.15;93.59
6514;BME280;3290;47.716;9.070;2023-12-20T00:08:51;97185.78;;;7.15;93.29
6514;BME280;3290;47.716;9.070;2023-12-20T00:11:16;97179.03;;;7.20;93.39
6514;BME280;3290;47.716;9.070;2023-12-20T00:13:42;97182.38;;;7.14;93.68
6514;BME280;3290;47.716;9.070;2023-12-20T00:16:07;97173.47;;;7.29;93.35
6514;BME280;3290;47.716;9.070;2023-12-20T00:18:33;97173.00;;;6.99;94.47
6514;BME280;3290;47.716;9.070;2023-12-20T00:20:58;97173.25;;;7.04;94.84
6514;BME280;3290;47.716;9.070;2023-12-20T00:23:23;97166.50;;;7.30;93.54
6514;BME280;3290;47.716;9.070;2023-12-20T00:25:49;97162.84;;;7.24;93.96
6514;BME280;3290;47.716;9.070;2023-12-20T00:28:14;97161.81;;;7.25;92.80
6514;BME280;3290;47.716;9.070;2023-12-20T00:30:40;97158.06;;;7.07;92.97
6514;BME280;3290;47.716;9.070;2023-12-20T00:33:05;97156.94;;;7.16;92.00
6514;BME280;3290;47.716;9.070;2023-12-20T00:35:30;97148.03;;;7.31;92.18
6514;BME280;3290;47.716;9.070;2023-12-20T00:37:56;97149.69;;;7.12;92.84
6514;BME280;3290;47.716;9.070;2023-12-20T00:40:21;97144.09;;;7.15;92.84
6514;BME280;3290;47.716;9.070;2023-12-20T00:42:47;97150.78;;;7.23;92.92
6514;BME280;3290;47.716;9.070;2023-12-20T00:45:13;97134.13;;;7.45;91.65
6514;BME280;3290;47.716;9.070;2023-12-20T00:47:39;97134.28;;;7.37;91.47
6514;BME280;3290;47.716;9.070;2023-12-20T00:50:05;97124.03;;;7.36;91.03
6514;BME280;3290;47.716;9.070;2023-12-20T00:52:31;97114.81;;;7.40;90.54
6514;BME280;3290;47.716;9.070;2023-12-20T00:54:56;97116.91;;;7.23;90.25
6514;BME280;3290;47.716;9.070;2023-12-20T00:57:21;97120.66;;;7.42;90.54
6514;BME280;3290;47.716;9.070;2023-12-20T00:59:47;97118.44;;;7.39;89.18
6514;BME280;3290;47.716;9.070;2023-12-20T01:02:12;97116.88;;;7.44;89.50
6514;BME280;3290;47.716;9.070;2023-12-20T01:04:37;97122.13;;;7.51;89.15
6514;BME280;3290;47.716;9.070;2023-12-20T01:07:03;97121.78;;;7.33;89.58
6514;BME280;3290;47.716;9.070;2023-12-20T01:09:28;97113.94;;;7.54;89.00
6514;BME280;3290;47.716;9.070;2023-12-20T01:11:53;97113.25;;;7.39;89.35
6514;BME280;3290;47.716;9.070;2023-12-20T01:14:19;97107.63;;;7.42;89.46
6514;BME280;3290;47.716;9.070;2023-12-20T01:16:44;97113.56;;;7.57;88.38
6514;BME280;3290;47.716;9.070;2023-12-20T01:19:10;97106.00;;;7.68;87.64
6514;BME280;3290;47.716;9.070;2023-12-20T01:21:35;97114.78;;;7.60;87.90
6514;BME280;3290;47.716;9.070;2023-12-20T01:24:01;97119.75;;;7.56;87.47
6514;BME280;3290;47.716;9.070;2023-12-20T01:26:26;97119.91;;;7.48;88.22
6514;BME280;3290;47.716;9.070;2023-12-20T01:28:51;97112.19;;;7.33;88.10
6514;BME280;3290;47.716;9.070;2023-12-20T01:31:17;97101.66;;;7.48;87.67
6514;BME280;3290;47.716;9.070;2023-12-20T01:33:42;97103.09;;;7.23;85.65
6514;BME280;3290;47.716;9.070;2023-12-20T01:36:08;97114.03;;;7.66;85.95
6514;BME280;3290;47.716;9.070;2023-12-20T01:38:33;97113.59;;;7.36;85.52
6514;BME280;3290;47.716;9.070;2023-12-20T01:40:59;97124.78;;;7.30;85.34
6514;BME280;3290;47.716;9.070;2023-12-20T01:43:25;97115.34;;;7.29;83.88
6514;BME280;3290;47.716;9.070;2023-12-20T01:45:51;97113.59;;;7.36;84.72
6514;BME280;3290;47.716;9.070;2023-12-20T01:48:17;97116.41;;;7.61;83.04
6514;BME280;3290;47.716;9.070;2023-12-20T01:50:43;97106.91;;;7.54;82.88
6514;BME280;3290;47.716;9.070;2023-12-20T01:53:12;97111.63;;;7.38;83.78
6514;BME280;3290;47.716;9.070;2023-12-20T01:55:39;97106.81;;;7.68;82.42
6514;BME280;3290;47.716;9.070;2023-12-20T01:58:07;97110.22;;;7.69;82.10
6514;BME280;3290;47.716;9.070;2023-12-20T02:00:34;97107.38;;;7.64;82.03
6514;BME280;3290;47.716;9.070;2023-12-20T02:03:03;97109.19;;;7.63;82.46
6514;BME280;3290;47.716;9.070;2023-12-20T02:05:30;97112.53;;;7.57;81.98
6514;BME280;3290;47.716;9.070;2023-12-20T02:07:56;97103.56;;;7.33;82.27
6514;BME280;3290;47.716;9.070;2023-12-20T02:10:21;97106.72;;;7.56;81.99
6514;BME280;3290;47.716;9.070;2023-12-20T02:12:47;97089.91;;;7.64;82.33
6514;BME280;3290;47.716;9.070;2023-12-20T02:15:12;97084.28;;;7.55;82.15
6514;BME280;3290;47.716;9.070;2023-12-20T02:17:38;97090.31;;;7.61;84.01
6514;BME280;3290;47.716;9.070;2023-12-20T02:20:05;97087.97;;;7.66;82.70
6514;BME280;3290;47.716;9.070;2023-12-20T02:22:31;97088.94;;;7.38;83.12
6514;BME280;3290;47.716;9.070;2023-12-20T02:24:56;97076.69;;;7.66;83.44
6514;BME280;3290;47.716;9.070;2023-12-20T02:27:22;97083.31;;;7.62;82.37
6514;BME280;3290;47.716;9.070;2023-12-20T02:29:48;97085.13;;;7.61;83.72
6514;BME280;3290;47.716;9.070;2023-12-20T02:32:13;97083.13;;;7.63;84.14
6514;BME280;3290;47.716;9.070;2023-12-20T02:34:39;97080.34;;;7.71;84.43
6514;BME280;3290;47.716;9.070;2023-12-20T02:37:04;97072.69;;;7.63;84.06
6514;BME280;3290;47.716;9.070;2023-12-20T02:39:30;97067.00;;;7.54;84.09
6514;BME280;3290;47.716;9.070;2023-12-20T02:41:55;97073.53;;;7.70;84.85
6514;BME280;3290;47.716;9.070;2023-12-20T02:44:20;97076.69;;;7.59;85.05
6514;BME280;3290;47.716;9.070;2023-12-20T02:46:46;97068.66;;;7.61;84.99
6514;BME280;3290;47.716;9.070;2023-12-20T02:49:11;97075.63;;;7.54;85.14
6514;BME280;3290;47.716;9.070;2023-12-20T02:51:37;97082.28;;;7.57;84.64
6514;BME280;3290;47.716;9.070;2023-12-20T02:54:04;97087.53;;;7.63;84.16
6514;BME280;3290;47.716;9.070;2023-12-20T02:56:29;97075.78;;;7.46;85.17
6514;BME280;3290;47.716;9.070;2023-12-20T02:58:54;97082.41;;;7.49;85.62
6514;BME280;3290;47.716;9.070;2023-12-20T03:01:20;97083.72;;;7.32;87.43
6514;BME280;3290;47.716;9.070;2023-12-20T03:03:45;97082.16;;;7.37;86.52
6514;BME280;3290;47.716;9.070;2023-12-20T03:06:10;97086.78;;;7.15;87.67
6514;BME280;3290;47.716;9.070;2023-12-20T03:08:36;97091.38;;;7.40;87.70
6514;BME280;3290;47.716;9.070;2023-12-20T03:11:02;97088.81;;;7.46;88.17
6514;BME280;3290;47.716;9.070;2023-12-20T03:13:27;97085.78;;;7.43;88.90
6514;BME280;3290;47.716;9.070;2023-12-20T03:15:52;97088.63;;;7.48;90.01
6514;BME280;3290;47.716;9.070;2023-12-20T03:18:18;97092.16;;;7.34;91.75
6514;BME280;3290;47.716;9.070;2023-12-20T03:20:43;97094.03;;;7.19;91.81
6514;BME280;3290;47.716;9.070;2023-12-20T03:23:08;97094.13;;;7.32;93.27
6514;BME280;3290;47.716;9.070;2023-12-20T03:25:34;97090.94;;;7.30;93.40
6514;BME280;3290;47.716;9.070;2023-12-20T03:28:00;97093.75;;;7.35;93.89
6514;BME280;3290;47.716;9.070;2023-12-20T03:30:25;97096.81;;;7.45;93.84
6514;BME280;3290;47.716;9.070;2023-12-20T03:32:51;97099.25;;;7.46;95.15
6514;BME280;3290;47.716;9.070;2023-12-20T03:35:16;97090.06;;;7.23;95.93
6514;BME280;3290;47.716;9.070;2023-12-20T03:37:41;97100.09;;;7.26;96.45
6514;BME280;3290;47.716;9.070;2023-12-20T03:40:07;97102.13;;;7.03;98.74
6514;BME280;3290;47.716;9.070;2023-12-20T03:42:32;97103.91;;;7.03;99.17
6514;BME280;3290;47.716;9.070;2023-12-20T03:44:58;97117.63;;;6.90;99.42
6514;BME280;3290;47.716;9.070;2023-12-20T03:47:23;97113.03;;;6.92;100.00
6514;BME280;3290;47.716;9.070;2023-12-20T03:49:48;97124.19;;;7.28;100.00
6514;BME280;3290;47.716;9.070;2023-12-20T03:52:14;97127.72;;;7.00;100.00
6514;BME280;3290;47.716;9.070;2023-12-20T03:54:39;97132.53;;;6.76;100.00
6514;BME280;3290;47.716;9.070;2023-12-20T03:57:06;97128.81;;;7.05;100.00
6514;BME280;3290;47.716;9.070;2023-12-20T03:59:36;97124.69;;;6.96;100.00
6514;BME280;3290;47.716;9.070;2023-12-20T04:02:01;97124.84;;;7.16;100.00
6514;BME280;3290;47.716;9.070;2023-12-20T04:04:27;97129.28;;;6.94;100.00
6514;BME280;3290;47.716;9.070;2023-12-20T04:06:52;97134.50;;;6.94;100.00
6514;BME280;3290;47.716;9.070;2023-12-20T04:09:18;97136.13;;;6.95;100.00
6514;BME280;3290;47.716;9.070;2023-12-20T04:11:43;97136.56;;;6.99;100.00
6514;BME280;3290;47.716;9.070;2023-12-20T04:14:08;97133.34;;;6.97;100.00
6514;BME280;3290;47.716;9.070;2023-12-20T04:16:35;97138.09;;;7.14;100.00
6514;BME280;3290;47.716;9.070;2023-12-20T04:19:00;97138.03;;;7.08;100.00
6514;BME280;3290;47.716;9.070;2023-12-20T04:21:26;97135.75;;;6.78;100.00
6514;BME280;3290;47.716;9.070;2023-12-20T04:23:51;97141.19;;;6.62;100.00
6514;BME280;3290;47.716;9.070;2023-12-20T04:26:17;97141.22;;;6.82;100.00
6514;BME280;3290;47.716;9.070;2023-12-20T04:28:42;97141.44;;;6.87;100.00
6514;BME280;3290;47.716;9.070;2023-12-20T04:31:08;97148.88;;;6.90;100.00
6514;BME280;3290;47.716;9.070;2023-12-20T04:33:33;97151.38;;;6.78;100.00
6514;BME280;3290;47.716;9.070;2023-12-20T04:35:59;97160.97;;;6.98;100.00
6514;BME280;3290;47.716;9.070;2023-12-20T04:38:25;97157.91;;;6.74;100.00
6514;BME280;3290;47.716;9.070;2023-12-20T04:40:50;97161.03;;;6.83;100.00
6514;BME280;3290;47.716;9.070;2023-12-20T04:43:16;97162.75;;;6.77;100.00
6514;BME280;3290;47.716;9.070;2023-12-20T04:45:41;97168.66;;;7.06;100.00
6514;BME280;3290;47.716;9.070;2023-12-20T04:48:07;97157.47;;;7.05;100.00
6514;BME280;3290;47.716;9.070;2023-12-20T04:50:32;97173.50;;;6.88;100.00
6514;BME280;3290;47.716;9.070;2023-12-20T04:52:58;97169.97;;;6.95;100.00
6514;BME280;3290;47.716;9.070;2023-12-20T04:55:23;97174.19;;;6.76;100.00
6514;BME280;3290;47.716;9.070;2023-12-20T04:57:49;97173.19;;;6.97;100.00
6514;BME280;3290;47.716;9.070;2023-12-20T05:00:14;97167.88;;;6.84;100.00
6514;BME280;3290;47.716;9.070;2023-12-20T05:02:40;97175.03;;;7.03;100.00
6514;BME280;3290;47.716;9.070;2023-12-20T05:05:06;97176.56;;;6.91;100.00
6514;BME280;3290;47.716;9.070;2023-12-20T05:07:32;97172.00;;;7.00;100.00
6514;BME280;3290;47.716;9.070;2023-12-20T05:09:58;97181.53;;;6.93;100.00
6514;BME280;3290;47.716;9.070;2023-12-20T05:12:23;97183.59;;;6.97;100.00
6514;BME280;3290;47.716;9.070;2023-12-20T05:14:49;97176.66;;;7.04;100.00
6514;BME280;3290;47.716;9.070;2023-12-20T05:17:14;97170.34;;;6.92;100.00
6514;BME280;3290;47.716;9.070;2023-12-20T05:19:39;97175.53;;;6.92;100.00
6514;BME280;3290;47.716;9.070;2023-12-20T05:22:05;97182.31;;;6.87;100.00
6514;BME280;3290;47.716;9.070;2023-12-20T05:24:30;97184.38;;;6.91;100.00
6514;BME280;3290;47.716;9.070;2023-12-20T05:26:55;97191.03;;;6.79;100.00
6514;BME280;3290;47.716;9.070;2023-12-20T05:29:21;97186.09;;;7.05;100.00
6514;BME280;3290;47.716;9.070;2023-12-20T05:31:46;97199.50;;;7.02;100.00
6514;BME280;3290;47.716;9.070;2023-12-20T05:34:11;97202.81;;;7.17;100.00
6514;BME280;3290;47.716;9.070;2023-12-20T05:36:37;97215.13;;;7.02;100.00
6514;BME280;3290;47.716;9.070;2023-12-20T05:39:04;97211.94;;;7.27;100.00
6514;BME280;3290;47.716;9.070;2023-12-20T05:41:30;97213.81;;;7.33;100.00
6514;BME280;3290;47.716;9.070;2023-12-20T05:43:55;97220.81;;;7.33;100.00
6514;BME280;3290;47.716;9.070;2023-12-20T05:46:23;97216.47;;;7.19;100.00
6514;BME280;3290;47.716;9.070;2023-12-20T05:48:48;97194.28;;;7.23;100.00
6514;BME280;3290;47.716;9.070;2023-12-20T05:51:14;97206.44;;;6.95;100.00
6514;BME280;3290;47.716;9.070;2023-12-20T05:53:39;97206.56;;;7.08;100.00
6514;BME280;3290;47.716;9.070;2023-12-20T05:56:05;97222.50;;;7.19;100.00
6514;BME280;3290;47.716;9.070;2023-12-20T05:58:32;97217.75;;;7.23;100.00
6514;BME280;3290;47.716;9.070;2023-12-20T06:00:58;97221.38;;;7.08;100.00
6514;BME280;3290;47.716;9.070;2023-12-20T06:03:23;97216.44;;;7.13;100.00
6514;BME280;3290;47.716;9.070;2023-12-20T06:05:49;97211.91;;;7.00;100.00
6514;BME280;3290;47.716;9.070;2023-12-20T06:08:14;97208.28;;;7.22;100.00
6514;BME280;3290;47.716;9.070;2023-12-20T06:10:39;97206.72;;;7.07;100.00
6514;BME280;3290;47.716;9.070;2023-12-20T06:13:05;97216.97;;;7.08;100.00
6514;BME280;3290;47.716;9.070;2023-12-20T06:15:32;97218.28;;;7.18;100.00
6514;BME280;3290;47.716;9.070;2023-12-20T06:17:58;97232.59;;;7.08;100.00
6514;BME280;3290;47.716;9.070;2023-12-20T06:20:23;97241.19;;;7.23;100.00
6514;BME280;3290;47.716;9.070;2023-12-20T06:22:49;97245.03;;;7.27;100.00
6514;BME280;3290;47.716;9.070;2023-12-20T06:25:15;97244.66;;;7.30;100.00
6514;BME280;3290;47.716;9.070;2023-12-20T06:27:40;97249.38;;;7.20;100.00
6514;BME280;3290;47.716;9.070;2023-12-20T06:30:07;97248.94;;;7.17;100.00
6514;BME280;3290;47.716;9.070;2023-12-20T06:32:34;97239.19;;;7.25;100.00
6514;BME280;3290;47.716;9.070;2023-12-20T06:34:59;97244.69;;;7.16;100.00
6514;BME280;3290;47.716;9.070;2023-12-20T06:37:25;97245.75;;;7.00;100.00
6514;BME280;3290;47.716;9.070;2023-12-20T06:39:50;97239.91;;;7.19;100.00
6514;BME280;3290;47.716;9.070;2023-12-20T06:42:15;97249.53;;;6.98;100.00
6514;BME280;3290;47.716;9.070;2023-12-20T06:44:41;97239.25;;;7.31;100.00
6514;BME280;3290;47.716;9.070;2023-12-20T06:47:06;97251.97;;;7.41;100.00
6514;BME280;3290;47.716;9.070;2023-12-20T06:49:32;97244.53;;;7.38;100.00
6514;BME280;3290;47.716;9.070;2023-12-20T06:51:57;97252.34;;;7.38;100.00
6514;BME280;3290;47.716;9.070;2023-12-20T06:54:22;97252.09;;;7.33;100.00
6514;BME280;3290;47.716;9.070;2023-12-20T06:56:48;97263.53;;;7.32;100.00
6514;BME280;3290;47.716;9.070;2023-12-20T06:59:13;97268.22;;;7.43;100.00
6514;BME280;3290;47.716;9.070;2023-12-20T07:01:39;97262.59;;;7.39;100.00
6514;BME280;3290;47.716;9.070;2023-12-20T07:04:04;97268.13;;;7.30;100.00
6514;BME280;3290;47.716;9.070;2023-12-20T07:06:29;97274.13;;;7.30;100.00
6514;BME280;3290;47.716;9.070;2023-12-20T07:08:54;97274.31;;;7.50;100.00
6514;BME280;3290;47.716;9.070;2023-12-20T07:11:20;97273.94;;;7.32;100.00
6514;BME280;3290;47.716;9.070;2023-12-20T07:13:46;97272.06;;;7.26;100.00
6514;BME280;3290;47.716;9.070;2023-12-20T07:16:11;97272.22;;;7.39;100.00
6514;BME280;3290;47.716;9.070;2023-12-20T07:18:37;97266.94;;;7.53;100.00
6514;BME280;3290;47.716;9.070;2023-12-20T07:21:03;97267.63;;;7.41;100.00
6514;BME280;3290;47.716;9.070;2023-12-20T07:23:28;97270.84;;;7.43;100.00
6514;BME280;3290;47.716;9.070;2023-12-20T07:25:53;97276.78;;;7.57;100.00
6514;BME280;3290;47.716;9.070;2023-12-20T07:28:19;97278.94;;;7.54;100.00
6514;BME280;3290;47.716;9.070;2023-12-20T07:30:44;97280.22;;;7.37;100.00
6514;BME280;3290;47.716;9.070;2023-12-20T07:33:09;97284.63;;;7.37;100.00
6514;BME280;3290;47.716;9.070;2023-12-20T07:35:37;97273.81;;;7.40;100.00
6514;BME280;3290;47.716;9.070;2023-12-20T07:38:02;97283.25;;;7.41;100.00
6514;BME280;3290;47.716;9.070;2023-12-20T07:40:28;97286.91;;;7.46;100.00
6514;BME280;3290;47.716;9.070;2023-12-20T07:42:53;97291.56;;;7.51;100.00
6514;BME280;3290;47.716;9.070;2023-12-20T07:45:19;97290.06;;;7.42;100.00
6514;BME280;3290;47.716;9.070;2023-12-20T07:47:44;97299.50;;;7.63;100.00
6514;BME280;3290;47.716;9.070;2023-12-20T07:50:10;97300.44;;;7.56;100.00
6514;BME280;3290;47.716;9.070;2023-12-20T07:52:35;97302.31;;;7.62;100.00
6514;BME280;3290;47.716;9.070;2023-12-20T07:55:00;97286.72;;;7.68;100.00
6514;BME280;3290;47.716;9.070;2023-12-20T07:57:29;97285.94;;;7.47;100.00
6514;BME280;3290;47.716;9.070;2023-12-20T07:59:54;97278.91;;;7.68;100.00
6514;BME280;3290;47.716;9.070;2023-12-20T08:02:19;97288.28;;;7.63;100.00
6514;BME280;3290;47.716;9.070;2023-12-20T08:04:45;97293.78;;;7.74;100.00
6514;BME280;3290;47.716;9.070;2023-12-20T08:07:10;97300.94;;;7.66;100.00
6514;BME280;3290;47.716;9.070;2023-12-20T08:09:35;97302.91;;;7.64;100.00
6514;BME280;3290;47.716;9.070;2023-12-20T08:12:02;97312.34;;;7.86;100.00
6514;BME280;3290;47.716;9.070;2023-12-20T08:14:27;97314.53;;;7.82;100.00
6514;BME280;3290;47.716;9.070;2023-12-20T08:16:53;97313.25;;;7.99;100.00
6514;BME280;3290;47.716;9.070;2023-12-20T08:19:18;97317.41;;;7.66;100.00
6514;BME280;3290;47.716;9.070;2023-12-20T08:21:43;97310.66;;;7.78;100.00
6514;BME280;3290;47.716;9.070;2023-12-20T08:24:09;97311.16;;;7.88;100.00
6514;BME280;3290;47.716;9.070;2023-12-20T08:26:34;97311.16;;;7.88;100.00
6514;BME280;3290;47.716;9.070;2023-12-20T08:29:00;97311.00;;;7.96;100.00
6514;BME280;3290;47.716;9.070;2023-12-20T08:31:25;97312.19;;;7.66;100.00
6514;BME280;3290;47.716;9.070;2023-12-20T08:33:51;97305.09;;;7.81;100.00
6514;BME280;3290;47.716;9.070;2023-12-20T08:36:19;97305.94;;;7.88;100.00
6514;BME280;3290;47.716;9.070;2023-12-20T08:38:46;97310.81;;;7.70;100.00
6514;BME280;3290;47.716;9.070;2023-12-20T08:41:12;97319.50;;;7.77;100.00
6514;BME280;3290;47.716;9.070;2023-12-20T08:43:37;97317.25;;;7.95;100.00
6514;BME280;3290;47.716;9.070;2023-12-20T08:46:05;97319.59;;;7.90;100.00
6514;BME280;3290;47.716;9.070;2023-12-20T08:48:30;97319.75;;;7.61;100.00
6514;BME280;3290;47.716;9.070;2023-12-20T08:50:56;97322.81;;;7.92;100.00
6514;BME280;3290;47.716;9.070;2023-12-20T08:53:21;97323.97;;;7.83;100.00
6514;BME280;3290;47.716;9.070;2023-12-20T08:55:47;97328.53;;;8.02;100.00
6514;BME280;3290;47.716;9.070;2023-12-20T08:58:12;97322.84;;;8.13;100.00
6514;BME280;3290;47.716;9.070;2023-12-20T09:00:37;97316.19;;;8.10;100.00
6514;BME280;3290;47.716;9.070;2023-12-20T09:03:04;97308.66;;;8.01;100.00
6514;BME280;3290;47.716;9.070;2023-12-20T09:05:29;97312.09;;;8.01;100.00
6514;BME280;3290;47.716;9.070;2023-12-20T09:07:55;97321.56;;;8.09;100.00
6514;BME280;3290;47.716;9.070;2023-12-20T09:10:20;97323.31;;;8.02;100.00
6514;BME280;3290;47.716;9.070;2023-12-20T09:12:54;97330.66;;;8.13;100.00
6514;BME280;3290;47.716;9.070;2023-12-20T09:15:23;97320.09;;;8.00;100.00
6514;BME280;3290;47.716;9.070;2023-12-20T09:17:48;97313.75;;;8.09;100.00
6514;BME280;3290;47.716;9.070;2023-12-20T09:20:13;97324.19;;;8.09;100.00
6514;BME280;3290;47.716;9.070;2023-12-20T09:22:39;97322.31;;;8.24;100.00
6514;BME280;3290;47.716;9.070;2023-12-20T09:25:05;97317.84;;;8.18;100.00
6514;BME280;3290;47.716;9.070;2023-12-20T09:27:30;97317.84;;;8.18;100.00
6514;BME280;3290;47.716;9.070;2023-12-20T09:29:56;97325.44;;;8.13;100.00
6514;BME280;3290;47.716;9.070;2023-12-20T09:32:21;97321.44;;;8.17;100.00
6514;BME280;3290;47.716;9.070;2023-12-20T09:34:47;97316.91;;;8.04;100.00
6514;BME280;3290;47.716;9.070;2023-12-20T09:37:13;97319.56;;;8.32;100.00
6514;BME280;3290;47.716;9.070;2023-12-20T09:39:38;97322.06;;;8.19;100.00
6514;BME280;3290;47.716;9.070;2023-12-20T09:42:04;97327.25;;;8.39;100.00
6514;BME280;3290;47.716;9.070;2023-12-20T09:44:31;97332.28;;;8.41;100.00
6514;BME280;3290;47.716;9.070;2023-12-20T09:46:58;97335.06;;;8.39;100.00
6514;BME280;3290;47.716;9.070;2023-12-20T09:49:25;97337.50;;;8.41;100.00
6514;BME280;3290;47.716;9.070;2023-12-20T09:51:54;97345.38;;;8.47;100.00
6514;BME280;3290;47.716;9.070;2023-12-20T09:54:21;97343.31;;;8.37;100.00
6514;BME280;3290;47.716;9.070;2023-12-20T09:56:47;97335.81;;;8.61;100.00
6514;BME280;3290;47.716;9.070;2023-12-20T09:59:13;97333.19;;;8.61;100.00
6514;BME280;3290;47.716;9.070;2023-12-20T10:01:39;97336.22;;;8.64;100.00
6514;BME280;3290;47.716;9.070;2023-12-20T10:04:06;97329.06;;;8.73;100.00
6514;BME280;3290;47.716;9.070;2023-12-20T10:06:40;97331.44;;;8.68;100.00
6514;BME280;3290;47.716;9.070;2023-12-20T10:09:06;97316.19;;;8.71;100.00
6514;BME280;3290;47.716;9.070;2023-12-20T10:11:32;97312.72;;;8.58;100.00
6514;BME280;3290;47.716;9.070;2023-12-20T10:14:00;97307.91;;;9.01;100.00
6514;BME280;3290;47.716;9.070;2023-12-20T10:16:29;97301.72;;;8.69;100.00
6514;BME280;3290;47.716;9.070;2023-12-20T10:18:54;97292.47;;;9.13;100.00
6514;BME280;3290;47.716;9.070;2023-12-20T10:21:21;97287.75;;;8.95;100.00
6514;BME280;3290;47.716;9.070;2023-12-20T10:23:47;97292.88;;;9.16;100.00
6514;BME280;3290;47.716;9.070;2023-12-20T10:26:25;97288.44;;;9.17;100.00
6514;BME280;3290;47.716;9.070;2023-12-20T10:28:53;97276.84;;;9.38;100.00
6514;BME280;3290;47.716;9.070;2023-12-20T10:31:34;97272.19;;;9.34;100.00
6514;BME280;3290;47.716;9.070;2023-12-20T10:34:01;97276.25;;;9.36;100.00
6514;BME280;3290;47.716;9.070;2023-12-20T10:36:29;97266.81;;;9.87;100.00
6514;BME280;3290;47.716;9.070;2023-12-20T10:38:56;97268.06;;;9.91;100.00
6514;BME280;3290;47.716;9.070;2023-12-20T10:41:30;97261.03;;;9.98;99.90
6514;BME280;3290;47.716;9.070;2023-12-20T10:44:01;97250.53;;;10.36;96.75
6514;BME280;3290;47.716;9.070;2023-12-20T10:46:30;97244.78;;;10.65;93.99
6514;BME280;3290;47.716;9.070;2023-12-20T10:48:57;97249.97;;;10.77;92.41
6514;BME280;3290;47.716;9.070;2023-12-20T10:51:23;97258.53;;;10.54;92.68
6514;BME280;3290;47.716;9.070;2023-12-20T10:53:52;97250.91;;;10.96;90.95
6514;BME280;3290;47.716;9.070;2023-12-20T10:56:18;97242.81;;;10.47;92.95
6514;BME280;3290;47.716;9.070;2023-12-20T10:58:45;97244.13;;;10.76;91.31
6514;BME280;3290;47.716;9.070;2023-12-20T11:01:13;97234.72;;;10.62;91.32
6514;BME280;3290;47.716;9.070;2023-12-20T11:03:43;97236.47;;;10.11;95.07
6514;BME280;3290;47.716;9.070;2023-12-20T11:06:36;97239.66;;;10.26;93.44
6514;BME280;3290;47.716;9.070;2023-12-20T11:14:23;97229.22;;;10.00;92.94
6514;BME280;3290;47.716;9.070;2023-12-20T11:16:50;97226.38;;;9.96;92.11
6514;BME280;3290;47.716;9.070;2023-12-20T11:19:16;97222.78;;;9.97;91.55
6514;BME280;3290;47.716;9.070;2023-12-20T11:21:42;97221.13;;;10.28;91.67
6514;BME280;3290;47.716;9.070;2023-12-20T11:24:07;97225.88;;;10.56;90.63
6514;BME280;3290;47.716;9.070;2023-12-20T11:26:33;97228.53;;;10.93;90.70
6514;BME280;3290;47.716;9.070;2023-12-20T11:31:54;97215.47;;;11.55;85.08
6514;BME280;3290;47.716;9.070;2023-12-20T11:34:20;97210.22;;;11.85;85.36
6514;BME280;3290;47.716;9.070;2023-12-20T11:36:45;97222.09;;;13.19;78.96
6514;BME280;3290;47.716;9.070;2023-12-20T11:39:10;97222.22;;;13.23;75.63
6514;BME280;3290;47.716;9.070;2023-12-20T11:41:36;97223.44;;;12.74;75.05
6514;BME280;3290;47.716;9.070;2023-12-20T11:44:04;97218.63;;;12.53;77.87
6514;BME280;3290;47.716;9.070;2023-12-20T11:46:31;97216.06;;;13.29;75.04
6514;BME280;3290;47.716;9.070;2023-12-20T11:48:56;97216.16;;;12.58;78.59
6514;BME280;3290;47.716;9.070;2023-12-20T11:51:22;97224.50;;;13.49;74.88
6514;BME280;3290;47.716;9.070;2023-12-20T11:53:51;97217.53;;;13.25;74.23
6514;BME280;3290;47.716;9.070;2023-12-20T11:56:17;97213.06;;;12.43;76.58
6514;BME280;3290;47.716;9.070;2023-12-20T11:58:42;97216.47;;;13.44;75.39
6514;BME280;3290;47.716;9.070;2023-12-20T12:01:08;97218.69;;;12.65;77.35
6514;BME280;3290;47.716;9.070;2023-12-20T12:03:33;97214.16;;;13.07;74.01
6514;BME280;3290;47.716;9.070;2023-12-20T12:05:59;97213.28;;;11.76;78.43
6514;BME280;3290;47.716;9.070;2023-12-20T12:08:26;97208.97;;;12.47;78.22
6514;BME280;3290;47.716;9.070;2023-12-20T12:10:51;97200.75;;;13.26;73.55
6514;BME280;3290;47.716;9.070;2023-12-20T12:13:16;97209.25;;;12.93;73.27
6514;BME280;3290;47.716;9.070;2023-12-20T12:15:42;97209.06;;;12.41;74.31
6514;BME280;3290;47.716;9.070;2023-12-20T12:18:08;97207.75;;;11.90;77.35
6514;BME280;3290;47.716;9.070;2023-12-20T12:20:33;97220.06;;;11.65;78.12
6514;BME280;3290;47.716;9.070;2023-12-20T12:23:05;97221.25;;;10.52;82.32
6514;BME280;3290;47.716;9.070;2023-12-20T12:25:33;97215.59;;;10.55;84.48
6514;BME280;3290;47.716;9.070;2023-12-20T12:28:00;97222.03;;;10.59;83.64
6514;BME280;3290;47.716;9.070;2023-12-20T12:30:26;97208.34;;;11.00;82.19
6514;BME280;3290;47.716;9.070;2023-12-20T12:32:52;97211.31;;;11.10;81.01
6514;BME280;3290;47.716;9.070;2023-12-20T12:35:18;97207.63;;;11.18;80.79
6514;BME280;3290;47.716;9.070;2023-12-20T12:37:44;97215.25;;;10.32;83.45
6514;BME280;3290;47.716;9.070;2023-12-20T12:40:16;97213.31;;;10.02;85.66
6514;BME280;3290;47.716;9.070;2023-12-20T12:42:43;97211.03;;;10.31;85.26
6514;BME280;3290;47.716;9.070;2023-12-20T12:45:09;97212.38;;;11.03;81.57
6514;BME280;3290;47.716;9.070;2023-12-20T12:47:37;97216.56;;;11.41;80.93
6514;BME280;3290;47.716;9.070;2023-12-20T12:50:03;97211.75;;;11.38;79.04
6514;BME280;3290;47.716;9.070;2023-12-20T12:52:29;97205.41;;;11.21;78.86
6514;BME280;3290;47.716;9.070;2023-12-20T12:54:55;97222.03;;;11.02;78.74
6514;BME280;3290;47.716;9.070;2023-12-20T12:57:20;97214.81;;;10.48;80.93
6514;BME280;3290;47.716;9.070;2023-12-20T12:59:46;97216.97;;;10.64;81.58
6514;BME280;3290;47.716;9.070;2023-12-20T13:02:15;97213.50;;;10.00;85.97
6514;BME280;3290;47.716;9.070;2023-12-20T13:04:40;97211.88;;;10.19;82.70
6514;BME280;3290;47.716;9.070;2023-12-20T13:07:07;97215.47;;;11.24;80.42
6514;BME280;3290;47.716;9.070;2023-12-20T13:09:33;97213.03;;;11.59;77.76
6514;BME280;3290;47.716;9.070;2023-12-20T13:11:58;97208.13;;;12.36;75.18
6514;BME280;3290;47.716;9.070;2023-12-20T13:14:24;97210.78;;;11.32;78.79
6514;BME280;3290;47.716;9.070;2023-12-20T13:16:49;97221.22;;;11.08;80.33
6514;BME280;3290;47.716;9.070;2023-12-20T13:19:15;97219.44;;;10.46;83.22
6514;BME280;3290;47.716;9.070;2023-12-20T13:21:40;97219.53;;;10.07;83.68
6514;BME280;3290;47.716;9.070;2023-12-20T13:24:06;97215.72;;;9.78;83.94
6514;BME280;3290;47.716;9.070;2023-12-20T13:26:31;97226.97;;;9.85;85.40